Time;durP1;ratioP1;P1;durP2;ratioP2;P2;SDS_P1;SDS_P2;PMS_P1;PMS_P2;Temp;Humidity;BMP_temperature;BMP_pressure;BME280_temperature;BME280_humidity;BME280_pressure;Samples;Min_cycle;Max_cycle;Signal;HPM_P1;HPM_P2
2021/04/10 00:02:00;;;;;;;39.15;30.70;;;9.20;68.60;;;;;;5013404;28;20433;-59
2021/04/10 00:04:26;;;;;;;37.60;28.38;;;9.30;68.60;;;;;;5017289;28;20033;-57
2021/04/10 00:06:51;;;;;;;35.30;28.05;;;9.30;68.50;;;;;;5031990;28;20029;-58
2021/04/10 00:09:17;;;;;;;40.35;30.02;;;9.30;68.10;;;;;;5018102;28;20116;-57
2021/04/10 00:11:43;;;;;;;45.67;29.80;;;9.30;68.90;;;;;;5015284;28;20064;-57
2021/04/10 00:14:12;;;;;;;44.40;34.38;;;9.20;69.70;;;;;;5032030;28;20021;-55
2021/04/10 00:16:38;;;;;;;44.17;33.17;;;9.20;70.10;;;;;;5015915;28;20093;-57
2021/04/10 00:19:04;;;;;;;44.70;33.90;;;9.20;70.50;;;;;;5015789;28;20561;-58
2021/04/10 00:21:30;;;;;;;40.83;30.83;;;9.10;69.90;;;;;;5024330;28;20033;-58
2021/04/10 00:23:56;;;;;;;41.10;30.20;;;9.10;68.50;;;;;;5027004;28;20033;-56
2021/04/10 00:26:22;;;;;;;43.83;32.22;;;9.00;67.90;;;;;;5018016;28;20504;-58
2021/04/10 00:28:48;;;;;;;41.13;31.10;;;9.10;68.10;;;;;;5032541;28;20079;-59
2021/04/10 00:31:13;;;;;;;39.53;28.90;;;9.10;68.70;;;;;;5018279;28;20111;-59
2021/04/10 00:33:41;;;;;;;37.35;28.83;;;9.10;68.80;;;;;;5014859;28;20496;-56
2021/04/10 00:36:10;;;;;;;43.67;30.55;;;9.10;69.20;;;;;;5032350;28;20144;-58
2021/04/10 00:38:38;;;;;;;39.72;30.50;;;9.00;70.10;;;;;;5018312;28;20072;-59
2021/04/10 00:41:06;;;;;;;38.17;28.83;;;9.00;69.70;;;;;;5016569;28;20128;-58
2021/04/10 00:43:31;;;;;;;36.50;26.95;;;9.00;69.80;;;;;;5032766;28;20120;-58
2021/04/10 00:45:57;;;;;;;37.28;27.42;;;9.00;70.00;;;;;;5016734;28;20116;-58
2021/04/10 00:48:23;;;;;;;32.63;24.08;;;8.90;69.80;;;;;;5016211;28;20477;-56
2021/04/10 00:50:50;;;;;;;41.42;27.58;;;8.90;69.60;;;;;;5032133;28;20033;-59
2021/04/10 00:53:17;;;;;;;34.17;26.45;;;8.80;70.00;;;;;;5017482;28;20655;-58
2021/04/10 00:55:46;;;;;;;29.23;22.80;;;8.70;70.20;;;;;;5017221;28;20485;-58
2021/04/10 00:58:11;;;;;;;35.28;24.08;;;8.70;70.10;;;;;;5032714;28;20021;-59
2021/04/10 01:00:38;;;;;;;36.45;25.55;;;8.70;70.30;;;;;;5017041;28;20041;-57
2021/04/10 01:03:04;;;;;;;27.38;21.20;;;8.60;70.60;;;;;;5013336;28;20398;-60
2021/04/10 01:05:29;;;;;;;30.33;22.17;;;8.50;70.90;;;;;;5011357;28;20045;-58
2021/04/10 01:07:55;;;;;;;32.53;24.20;;;8.60;70.90;;;;;;5026552;28;20037;-59
2021/04/10 01:10:22;;;;;;;33.13;23.42;;;8.60;71.00;;;;;;5027532;28;20041;-57
2021/04/10 01:13:06;;;;;;;32.58;24.05;;;8.70;71.00;;;;;;5012455;28;20030;-59
2021/04/10 01:15:53;;;;;;;31.90;21.80;;;8.70;71.00;;;;;;5030267;28;20034;-57
2021/04/10 01:18:29;;;;;;;32.75;23.70;;;8.70;70.60;;;;;;5027475;28;20097;-57
2021/04/10 01:21:12;;;;;;;27.40;21.50;;;8.70;71.00;;;;;;5016344;28;20077;-55
2021/04/10 01:24:04;;;;;;;30.52;21.60;;;8.70;71.20;;;;;;5015938;28;20054;-56
2021/04/10 01:26:48;;;;;;;26.80;21.35;;;8.70;71.10;;;;;;5028032;28;20041;-55
2021/04/10 01:29:16;;;;;;;31.70;24.05;;;8.80;71.00;;;;;;5026449;28;20030;-57
2021/04/10 01:31:45;;;;;;;33.58;23.08;;;8.80;71.40;;;;;;5015874;28;20030;-59
2021/04/10 01:34:15;;;;;;;34.30;24.30;;;8.80;71.90;;;;;;5014830;28;20490;-58
2021/04/10 01:36:43;;;;;;;33.35;25.83;;;8.70;72.50;;;;;;5025433;28;20484;-55
2021/04/10 01:39:12;;;;;;;29.92;20.35;;;8.70;72.50;;;;;;5035006;28;20125;-57
2021/04/10 01:41:43;;;;;;;30.77;21.50;;;8.60;71.80;;;;;;5015088;28;20092;-59
2021/04/10 01:44:13;;;;;;;29.88;22.17;;;8.60;71.50;;;;;;5010619;28;20034;-57
2021/04/10 01:46:39;;;;;;;28.17;22.77;;;8.40;71.10;;;;;;5013306;28;20026;-59
2021/04/10 01:49:06;;;;;;;33.75;25.02;;;8.40;71.10;;;;;;5035517;28;20067;-55
2021/04/10 01:51:33;;;;;;;30.08;22.67;;;8.30;72.00;;;;;;5035140;28;20042;-57
2021/04/10 01:53:59;;;;;;;32.92;23.17;;;8.10;72.80;;;;;;5035239;28;20505;-58
2021/04/10 01:56:26;;;;;;;33.33;23.95;;;7.90;73.60;;;;;;5035242;28;20036;-59
2021/04/10 01:58:52;;;;;;;28.45;20.25;;;7.80;74.90;;;;;;5023199;28;20026;-55
2021/04/10 02:01:20;;;;;;;26.23;18.60;;;7.80;74.90;;;;;;5025104;28;20037;-57
2021/04/10 02:03:46;;;;;;;26.00;18.48;;;7.70;75.40;;;;;;5035140;28;20028;-57
2021/04/10 02:06:13;;;;;;;24.63;19.23;;;7.60;75.00;;;;;;5014453;28;20037;-59
2021/04/10 02:08:43;;;;;;;29.02;20.02;;;7.70;74.30;;;;;;5024999;28;20495;-60
2021/04/10 02:11:11;;;;;;;30.35;19.60;;;7.70;75.20;;;;;;5034022;28;20492;-58
2021/04/10 02:13:38;;;;;;;27.98;19.40;;;7.60;74.80;;;;;;5014971;28;20064;-56
2021/04/10 02:16:04;;;;;;;27.90;21.77;;;7.40;75.60;;;;;;5025829;28;20030;-57
2021/04/10 02:18:30;;;;;;;27.45;20.00;;;7.40;77.10;;;;;;5025925;28;20034;-57
2021/04/10 02:21:00;;;;;;;26.67;20.95;;;7.50;76.40;;;;;;5031055;28;20512;-57
2021/04/10 02:23:26;;;;;;;28.33;22.55;;;7.60;76.10;;;;;;5025704;28;20045;-59
2021/04/10 02:25:52;;;;;;;27.60;20.90;;;7.70;76.80;;;;;;5020106;28;20136;-58
2021/04/10 02:28:17;;;;;;;29.20;20.13;;;7.80;76.50;;;;;;5035072;28;20405;-56
2021/04/10 02:30:43;;;;;;;25.10;19.83;;;7.80;76.90;;;;;;5023219;28;20108;-58
2021/04/10 02:33:16;;;;;;;28.17;20.48;;;7.80;76.30;;;;;;5015453;28;20712;-57
2021/04/10 02:35:48;;;;;;;27.08;20.77;;;7.90;76.70;;;;;;5034759;28;20489;-56
2021/04/10 02:38:17;;;;;;;24.67;20.05;;;8.00;76.60;;;;;;5021706;28;20145;-58
2021/04/10 02:40:48;;;;;;;26.10;19.33;;;8.10;76.30;;;;;;5017604;28;20035;-58
2021/04/10 02:43:20;;;;;;;26.33;19.55;;;8.20;76.50;;;;;;5034266;28;20120;-57
2021/04/10 02:45:48;;;;;;;23.92;17.25;;;8.10;74.70;;;;;;5016959;28;20030;-56
2021/04/10 02:48:27;;;;;;;24.08;18.92;;;8.10;75.00;;;;;;5006886;28;20037;-59
2021/04/10 02:50:56;;;;;;;31.40;21.45;;;8.10;77.30;;;;;;5003145;28;20034;-59
2021/04/10 02:53:24;;;;;;;31.48;22.58;;;8.10;79.00;;;;;;5027057;28;20029;-61
2021/04/10 02:55:54;;;;;;;23.42;19.83;;;8.10;79.90;;;;;;5027974;28;20038;-61
2021/04/10 02:58:21;;;;;;;29.05;21.70;;;8.10;80.60;;;;;;5013344;28;20104;-63
2021/04/10 03:00:47;;;;;;;28.45;19.95;;;8.00;81.10;;;;;;5029365;28;20276;-64
2021/04/10 03:03:15;;;;;;;26.13;18.38;;;8.00;79.90;;;;;;5024692;28;20080;-61
2021/04/10 03:05:45;;;;;;;27.50;19.52;;;8.00;79.70;;;;;;5014344;28;20033;-63
2021/04/10 03:08:16;;;;;;;29.05;21.15;;;8.00;80.50;;;;;;5030452;28;20091;-62
2021/04/10 03:10:46;;;;;;;28.70;21.25;;;8.00;80.10;;;;;;5025748;28;20100;-62
2021/04/10 03:13:13;;;;;;;36.17;21.90;;;7.90;81.70;;;;;;5013954;28;20092;-62
2021/04/10 03:15:39;;;;;;;28.95;19.67;;;7.80;83.80;;;;;;5031726;28;20394;-63
2021/04/10 03:18:06;;;;;;;25.60;19.95;;;7.80;83.20;;;;;;5024812;28;20040;-64
2021/04/10 03:20:32;;;;;;;28.30;21.83;;;7.80;82.80;;;;;;5013253;28;20500;-62
2021/04/10 03:22:58;;;;;;;29.17;21.35;;;7.80;82.70;;;;;;5013957;28;20128;-63
2021/04/10 03:25:24;;;;;;;28.40;20.92;;;7.90;83.20;;;;;;5021112;28;20063;-63
2021/04/10 03:27:49;;;;;;;26.70;19.83;;;7.80;83.50;;;;;;5033607;28;20044;-63
2021/04/10 03:30:16;;;;;;;24.77;19.38;;;7.90;83.40;;;;;;5015047;28;20057;-61
2021/04/10 03:32:43;;;;;;;30.40;19.95;;;7.90;84.10;;;;;;5021057;28;20075;-63
2021/04/10 03:35:11;;;;;;;26.70;21.27;;;7.80;84.60;;;;;;5032859;28;20473;-63
2021/04/10 03:37:36;;;;;;;27.58;20.17;;;7.70;85.30;;;;;;5013928;28;20046;-63
2021/04/10 03:40:03;;;;;;;28.52;20.83;;;7.70;85.80;;;;;;5020849;28;20071;-63
2021/04/10 03:42:35;;;;;;;31.17;21.38;;;7.60;86.80;;;;;;5032866;28;20030;-63
2021/04/10 03:45:02;;;;;;;28.85;21.45;;;7.60;87.30;;;;;;5013942;28;20037;-63
2021/04/10 03:47:28;;;;;;;29.85;20.02;;;7.40;88.00;;;;;;5021888;28;20043;-62
2021/04/10 03:49:53;;;;;;;37.90;20.88;;;7.50;88.50;;;;;;5032101;28;20506;-63
2021/04/10 03:52:19;;;;;;;29.13;21.95;;;7.40;88.60;;;;;;5013970;28;20038;-63
2021/04/10 03:54:44;;;;;;;29.23;22.20;;;7.40;89.10;;;;;;5020793;28;20667;-64
2021/04/10 03:57:10;;;;;;;28.52;20.40;;;7.40;89.80;;;;;;5032301;28;20037;-63
2021/04/10 03:59:35;;;;;;;30.27;20.92;;;7.30;90.20;;;;;;5014407;28;20038;-63
2021/04/10 04:02:01;;;;;;;28.23;21.40;;;7.20;90.40;;;;;;5020086;28;20481;-62
2021/04/10 04:04:27;;;;;;;35.72;22.27;;;7.10;90.90;;;;;;5032296;28;20071;-63
2021/04/10 04:06:52;;;;;;;28.05;21.52;;;7.20;90.70;;;;;;5015034;28;20056;-62
2021/04/10 04:09:18;;;;;;;31.67;21.67;;;7.20;90.60;;;;;;5019153;28;20080;-63
2021/04/10 04:11:43;;;;;;;30.75;22.45;;;7.20;91.00;;;;;;5030664;28;20479;-61
2021/04/10 04:14:11;;;;;;;31.98;22.02;;;7.20;91.20;;;;;;5015345;28;20026;-63
2021/04/10 04:16:37;;;;;;;31.08;22.67;;;7.20;91.20;;;;;;5019459;28;20039;-63
2021/04/10 04:19:02;;;;;;;32.25;22.63;;;7.20;91.40;;;;;;5017062;28;20038;-63
2021/04/10 04:21:28;;;;;;;31.70;22.40;;;7.20;91.40;;;;;;5021755;28;20052;-62
2021/04/10 04:23:53;;;;;;;30.60;22.08;;;7.30;91.40;;;;;;5018812;28;20517;-62
2021/04/10 04:26:19;;;;;;;30.27;21.23;;;7.40;91.50;;;;;;5014597;28;20496;-62
2021/04/10 04:28:44;;;;;;;27.40;20.85;;;7.30;91.70;;;;;;5027355;28;20041;-64
2021/04/10 04:31:10;;;;;;;30.27;20.77;;;7.40;91.70;;;;;;5025185;28;20108;-63
2021/04/10 04:33:35;;;;;;;32.35;21.52;;;7.30;92.00;;;;;;5012663;28;20110;-63
2021/04/10 04:36:01;;;;;;;29.77;22.33;;;7.30;92.10;;;;;;5026937;28;20140;-62
2021/04/10 04:38:26;;;;;;;30.23;21.73;;;7.30;92.30;;;;;;5029911;28;20370;-62
2021/04/10 04:40:52;;;;;;;29.90;21.75;;;7.30;92.30;;;;;;5033653;28;20038;-63
2021/04/10 04:43:18;;;;;;;33.25;23.30;;;7.30;92.30;;;;;;5031077;28;20039;-62
2021/04/10 04:45:43;;;;;;;30.83;22.50;;;7.20;92.60;;;;;;5026706;28;20120;-62
2021/04/10 04:48:09;;;;;;;30.20;22.65;;;7.20;92.90;;;;;;5011929;28;20038;-62
2021/04/10 04:50:35;;;;;;;30.25;22.92;;;7.20;92.90;;;;;;5030304;28;20046;-63
2021/04/10 04:53:00;;;;;;;29.60;22.67;;;7.20;92.90;;;;;;5031379;28;20076;-62
2021/04/10 04:55:26;;;;;;;33.55;24.05;;;7.30;92.90;;;;;;5016608;28;20462;-59
2021/04/10 04:57:51;;;;;;;33.75;22.45;;;7.40;92.70;;;;;;5030906;28;20037;-61
2021/04/10 05:00:17;;;;;;;32.25;22.88;;;7.40;92.60;;;;;;5031216;28;20049;-60
2021/04/10 05:02:44;;;;;;;31.40;23.02;;;7.40;92.40;;;;;;5016492;28;20437;-60
2021/04/10 05:05:10;;;;;;;34.95;24.58;;;7.50;92.30;;;;;;5030072;28;20455;-56
2021/04/10 05:07:35;;;;;;;33.65;24.30;;;7.60;92.20;;;;;;5031000;28;20481;-59
2021/04/10 05:10:01;;;;;;;34.90;26.23;;;7.70;92.10;;;;;;5016154;28;20037;-58
2021/04/10 05:12:27;;;;;;;32.63;26.00;;;7.60;91.80;;;;;;5029729;28;20044;-60
2021/04/10 05:14:53;;;;;;;33.58;25.90;;;7.50;92.00;;;;;;5035104;28;20037;-60
2021/04/10 05:17:19;;;;;;;33.45;26.80;;;7.50;92.00;;;;;;5035833;28;20029;-58
2021/04/10 05:19:44;;;;;;;34.33;25.33;;;7.40;92.00;;;;;;5015879;28;20176;-59
2021/04/10 05:22:10;;;;;;;34.92;26.02;;;7.50;92.10;;;;;;5015966;28;20048;-60
2021/04/10 05:24:36;;;;;;;31.85;25.67;;;7.60;92.20;;;;;;5015434;28;20452;-61
2021/04/10 05:27:01;;;;;;;31.55;26.73;;;7.60;92.30;;;;;;5022697;28;20095;-60
2021/04/10 05:29:27;;;;;;;32.25;24.33;;;7.60;92.10;;;;;;5016227;28;20041;-61
2021/04/10 05:31:54;;;;;;;32.95;25.90;;;7.70;92.10;;;;;;5014637;28;20044;-59
2021/04/10 05:34:20;;;;;;;35.15;26.13;;;7.80;91.80;;;;;;5015926;28;20052;-59
2021/04/10 05:36:45;;;;;;;32.30;25.83;;;8.00;91.50;;;;;;5015258;28;20037;-60
2021/04/10 05:39:11;;;;;;;37.38;26.77;;;7.90;91.60;;;;;;5014565;28;20053;-59
2021/04/10 05:41:36;;;;;;;34.58;26.33;;;7.90;91.80;;;;;;5018776;28;20046;-63
2021/04/10 05:44:02;;;;;;;30.85;24.88;;;7.90;91.80;;;;;;5015917;28;20153;-61
2021/04/10 05:46:28;;;;;;;29.85;25.67;;;8.00;91.70;;;;;;5014609;28;20030;-59
2021/04/10 05:48:53;;;;;;;33.83;24.98;;;8.00;91.90;;;;;;5012452;28;20046;-60
2021/04/10 05:51:19;;;;;;;32.55;26.30;;;8.10;91.60;;;;;;5015046;28;20478;-60
2021/04/10 05:53:45;;;;;;;39.53;28.13;;;8.20;91.50;;;;;;5014766;28;20026;-58
2021/04/10 05:56:11;;;;;;;31.77;26.52;;;8.10;91.40;;;;;;5030632;28;20026;-60
2021/04/10 05:58:38;;;;;;;32.72;25.60;;;8.10;91.40;;;;;;5015168;28;20132;-59
2021/04/10 06:01:03;;;;;;;37.58;26.92;;;8.20;91.60;;;;;;5013705;28;20025;-57
2021/04/10 06:03:30;;;;;;;35.13;26.23;;;8.10;91.30;;;;;;5015373;28;20120;-60
2021/04/10 06:05:55;;;;;;;30.75;26.35;;;8.20;91.10;;;;;;5015336;28;20052;-56
2021/04/10 06:08:21;;;;;;;34.03;26.63;;;8.20;91.10;;;;;;5014436;28;20026;-57
2021/04/10 06:10:47;;;;;;;32.80;27.65;;;8.20;91.40;;;;;;5015364;28;20049;-57
2021/04/10 06:13:12;;;;;;;38.30;28.35;;;8.20;91.50;;;;;;5017633;28;20387;-59
2021/04/10 06:15:38;;;;;;;37.08;29.00;;;8.20;91.40;;;;;;5017602;28;20029;-60
2021/04/10 06:18:04;;;;;;;34.25;28.08;;;8.10;91.50;;;;;;5016810;28;20088;-59
2021/04/10 06:20:30;;;;;;;36.40;27.88;;;8.10;91.50;;;;;;5015202;28;20026;-58
2021/04/10 06:22:55;;;;;;;42.10;31.13;;;8.20;91.60;;;;;;5015064;28;20441;-59
2021/04/10 06:25:21;;;;;;;36.95;30.05;;;8.10;91.60;;;;;;5016920;28;20112;-57
2021/04/10 06:27:47;;;;;;;34.55;29.92;;;8.10;91.80;;;;;;5013559;28;20067;-56
2021/04/10 06:30:13;;;;;;;36.85;31.30;;;8.10;91.90;;;;;;5013908;28;20050;-57
2021/04/10 06:32:38;;;;;;;37.10;30.40;;;8.00;91.80;;;;;;5013872;28;20048;-56
2021/04/10 06:35:05;;;;;;;36.83;29.17;;;8.10;91.60;;;;;;5015027;28;20038;-59
2021/04/10 06:37:31;;;;;;;35.03;29.60;;;8.10;91.70;;;;;;5013772;28;20041;-57
2021/04/10 06:39:56;;;;;;;36.13;30.80;;;8.10;91.60;;;;;;5015853;28;20050;-57
2021/04/10 06:42:22;;;;;;;35.38;30.50;;;8.10;91.60;;;;;;5022806;28;20037;-59
2021/04/10 06:44:48;;;;;;;33.20;29.58;;;8.10;91.70;;;;;;5034511;28;20029;-60
2021/04/10 06:47:19;;;;;;;38.67;31.08;;;8.20;91.60;;;;;;5033972;28;20057;-60
2021/04/10 06:49:45;;;;;;;36.38;30.48;;;8.30;91.30;;;;;;5024016;28;20528;-60
2021/04/10 06:52:15;;;;;;;35.17;29.50;;;8.30;91.40;;;;;;5013641;28;20105;-63
2021/04/10 06:54:45;;;;;;;36.67;31.30;;;8.40;91.50;;;;;;5016132;28;20053;-58
2021/04/10 06:57:16;;;;;;;40.25;31.63;;;8.40;91.50;;;;;;5015252;28;20057;-61
2021/04/10 07:00:05;;;;;;;36.05;31.35;;;8.50;91.50;;;;;;5013619;28;20033;-61
2021/04/10 07:02:32;;;;;;;38.22;29.90;;;8.40;91.30;;;;;;5013913;28;20034;-60
2021/04/10 07:04:58;;;;;;;41.15;35.88;;;8.50;91.30;;;;;;5016396;28;20042;-59
2021/04/10 07:07:25;;;;;;;36.80;32.10;;;8.50;91.20;;;;;;5012893;28;20075;-65
2021/04/10 07:09:51;;;;;;;38.15;31.35;;;8.60;91.20;;;;;;5029782;28;20053;-61
2021/04/10 07:12:17;;;;;;;35.38;30.30;;;8.50;91.10;;;;;;5020429;28;20037;-60
2021/04/10 07:14:43;;;;;;;36.65;30.55;;;8.50;91.40;;;;;;5030651;28;20055;-58
2021/04/10 07:17:10;;;;;;;40.45;32.28;;;8.60;91.40;;;;;;5013326;28;20065;-60
2021/04/10 07:19:37;;;;;;;41.35;33.90;;;8.60;91.40;;;;;;5026193;28;20041;-59
2021/04/10 07:22:06;;;;;;;41.50;33.17;;;8.60;91.50;;;;;;5023424;28;20559;-57
2021/04/10 07:24:52;;;;;;;36.30;31.38;;;8.60;91.70;;;;;;5029222;28;20065;-60
2021/04/10 07:27:26;;;;;;;40.67;33.75;;;8.60;91.90;;;;;;5029361;28;20111;-60
2021/04/10 07:29:53;;;;;;;;;;;8.50;91.90;;;;;;5025720;28;20026;-59
2021/04/10 07:32:27;;;;;;;38.83;31.80;;;8.50;91.80;;;;;;5012954;28;19909;-59
2021/04/10 07:34:53;;;;;;;;;;;8.40;91.80;;;;;;5032163;28;20045;-61
2021/04/10 07:37:30;;;;;;;36.10;31.80;;;8.40;91.60;;;;;;5024484;28;20015;-61
2021/04/10 07:39:55;;;;;;;39.22;31.70;;;8.50;91.90;;;;;;5013228;28;20095;-61
2021/04/10 07:42:28;;;;;;;36.83;31.23;;;8.50;91.80;;;;;;5031523;28;20038;-61
2021/04/10 07:44:54;;;;;;;33.42;29.05;;;8.60;91.70;;;;;;5016603;28;20036;-62
2021/04/10 07:47:36;;;;;;;36.90;31.48;;;8.70;91.60;;;;;;5015735;28;20038;-62
2021/04/10 07:50:18;;;;;;;40.03;31.98;;;8.80;91.60;;;;;;5033219;28;20136;-60
2021/04/10 07:52:44;;;;;;;39.15;33.13;;;8.80;91.50;;;;;;5014181;28;20366;-60
2021/04/10 07:55:30;;;;;;;38.42;32.33;;;8.70;91.70;;;;;;5020094;28;20488;-59
2021/04/10 07:58:30;;;;;;;39.42;32.97;;;8.80;91.70;;;;;;5032936;28;20132;-56
2021/04/10 08:00:58;;;;;;;41.75;34.20;;;8.70;91.80;;;;;;5024809;28;20025;-56
2021/04/10 08:03:31;;;;;;;38.55;32.90;;;8.60;92.10;;;;;;5030028;28;20090;-60
2021/04/10 08:06:12;;;;;;;44.03;35.08;;;8.60;92.10;;;;;;5020422;28;20038;-62
2021/04/10 08:08:54;;;;;;;43.42;35.60;;;8.40;92.20;;;;;;5012549;28;20136;-59
2021/04/10 08:11:34;;;;;;;39.70;33.65;;;8.30;92.70;;;;;;5027369;28;20068;-60
2021/04/10 08:14:07;;;;;;;35.40;31.25;;;8.50;92.60;;;;;;5013060;28;20036;-60
2021/04/10 08:16:38;;;;;;;38.53;33.78;;;8.60;92.40;;;;;;5023300;28;20026;-63
2021/04/10 08:19:03;;;;;;;39.33;32.90;;;8.60;92.10;;;;;;5011415;28;20089;-63
2021/04/10 08:21:32;;;;;;;43.65;34.22;;;8.70;91.80;;;;;;5013162;28;20034;-58
2021/04/10 08:24:19;;;;;;;42.95;35.05;;;8.90;91.60;;;;;;5010587;28;20105;-57
2021/04/10 08:26:46;;;;;;;41.38;33.35;;;8.90;91.60;;;;;;5008029;28;20030;-57
2021/04/10 08:29:11;;;;;;;42.53;36.45;;;8.70;91.90;;;;;;5021406;28;20116;-59
2021/04/10 08:31:37;;;;;;;46.58;39.15;;;8.40;92.40;;;;;;5032683;28;20457;-59
2021/04/10 08:34:03;;;;;;;48.53;37.38;;;8.30;92.70;;;;;;5029285;28;20041;-57
2021/04/10 08:36:29;;;;;;;43.42;35.60;;;8.50;92.10;;;;;;5023055;28;20030;-60
2021/04/10 08:38:55;;;;;;;39.58;33.95;;;8.60;92.20;;;;;;5019613;28;20037;-59
2021/04/10 08:41:27;;;;;;;41.58;34.33;;;8.80;92.00;;;;;;5029668;28;20470;-58
2021/04/10 08:43:53;;;;;;;41.30;33.10;;;8.90;91.70;;;;;;5013191;28;20045;-60
2021/04/10 08:46:20;;;;;;;42.67;35.08;;;8.90;91.90;;;;;;5013388;28;20093;-60
2021/04/10 08:48:56;;;;;;;42.05;33.90;;;9.10;91.60;;;;;;5015815;28;20380;-60
2021/04/10 08:51:24;;;;;;;39.30;33.40;;;9.10;91.40;;;;;;5020653;28;20177;-59
2021/04/10 08:53:52;;;;;;;43.33;34.72;;;9.10;91.40;;;;;;5014750;28;20163;-58
2021/04/10 08:56:26;;;;;;;36.22;32.38;;;9.20;91.30;;;;;;5012466;28;20060;-59
2021/04/10 08:58:52;;;;;;;39.65;33.40;;;9.20;90.90;;;;;;5012080;28;20065;-60
2021/04/10 09:01:23;;;;;;;40.85;33.25;;;9.30;90.80;;;;;;5028788;28;20057;-60
2021/04/10 09:03:49;;;;;;;36.90;32.13;;;9.30;90.80;;;;;;5030092;28;20495;-59
2021/04/10 09:06:33;;;;;;;36.63;31.75;;;9.30;90.80;;;;;;5012437;28;20034;-59
2021/04/10 09:09:11;;;;;;;39.45;33.03;;;9.40;90.70;;;;;;5014806;28;20041;-58
2021/04/10 09:11:37;;;;;;;37.15;32.22;;;9.50;90.50;;;;;;5031800;28;20025;-56
2021/04/10 09:14:03;;;;;;;38.60;31.25;;;9.60;90.00;;;;;;5029313;28;20112;-58
2021/04/10 09:16:33;;;;;;;41.88;32.95;;;9.50;90.10;;;;;;5012150;28;20025;-56
2021/04/10 09:19:03;;;;;;;43.40;32.35;;;9.50;89.30;;;;;;5013020;28;20030;-57
2021/04/10 09:21:49;;;;;;;43.30;34.40;;;9.40;90.20;;;;;;5024891;28;20030;-57
2021/04/10 09:24:45;;;;;;;41.60;35.80;;;9.40;90.20;;;;;;5006483;28;20040;-55
2021/04/10 09:27:31;;;;;;;46.80;38.90;;;9.10;91.10;;;;;;5010837;28;20041;-56
2021/04/10 09:29:59;;;;;;;44.47;36.67;;;9.10;91.10;;;;;;5011250;28;20092;-57
2021/04/10 09:32:31;;;;;;;39.88;34.47;;;9.10;91.10;;;;;;5010584;28;20112;-57
2021/04/10 09:34:58;;;;;;;40.35;35.30;;;9.10;91.00;;;;;;5009295;28;20117;-57
2021/04/10 09:37:24;;;;;;;43.50;36.47;;;9.10;91.30;;;;;;5012532;28;20084;-58
2021/04/10 09:39:57;;;;;;;41.25;35.72;;;9.10;91.20;;;;;;5014833;28;20038;-56
2021/04/10 09:45:31;;;;;;;45.65;39.80;;;8.70;91.90;;;;;;5016475;28;20365;-57
2021/04/10 09:48:00;;;;;;;43.72;37.38;;;8.60;92.30;;;;;;5013467;28;20029;-57
2021/04/10 09:50:38;;;;;;;42.95;38.35;;;8.90;91.80;;;;;;5013444;28;20033;-60
2021/04/10 09:53:12;;;;;;;47.08;38.17;;;8.90;92.00;;;;;;5012636;28;20022;-57
2021/04/10 09:55:41;;;;;;;40.78;35.30;;;9.00;91.90;;;;;;5017097;28;20030;-58
2021/04/10 09:58:08;;;;;;;41.42;35.70;;;9.00;91.70;;;;;;5014078;28;20038;-55
2021/04/10 10:00:37;;;;;;;42.50;35.30;;;9.10;91.30;;;;;;5031118;28;20041;-59
2021/04/10 10:03:05;;;;;;;42.63;37.92;;;9.10;91.00;;;;;;5016761;28;20061;-55
2021/04/10 10:05:36;;;;;;;43.35;38.42;;;9.10;90.80;;;;;;5017424;28;20046;-61
2021/04/10 10:08:10;;;;;;;44.55;39.40;;;8.90;91.40;;;;;;5013508;28;20045;-56
2021/04/10 10:10:56;;;;;;;47.95;40.95;;;8.80;91.80;;;;;;5012685;28;20030;-57
2021/04/10 10:13:24;;;;;;;49.17;39.10;;;8.80;91.80;;;;;;5012983;28;20116;-60
2021/04/10 10:15:52;;;;;;;45.75;40.42;;;8.80;91.60;;;;;;5025610;28;20029;-58
2021/04/10 10:18:40;;;;;;;43.78;38.08;;;8.80;91.70;;;;;;5032699;28;20038;-57
2021/04/10 10:21:17;;;;;;;45.70;38.75;;;8.80;91.50;;;;;;5021558;28;20041;-56
2021/04/10 10:23:58;;;;;;;45.03;37.47;;;8.80;91.60;;;;;;5014364;28;20061;-56
2021/04/10 10:26:39;;;;;;;44.78;36.83;;;9.00;91.30;;;;;;5016759;28;20040;-57
2021/04/10 10:29:09;;;;;;;40.88;34.78;;;9.10;90.80;;;;;;5015391;28;20113;-58
2021/04/10 10:31:43;;;;;;;42.63;35.85;;;9.30;90.60;;;;;;5017804;28;20489;-59
2021/04/10 10:34:11;;;;;;;43.65;35.17;;;9.40;90.40;;;;;;5001406;28;20445;-58
2021/04/10 10:36:40;;;;;;;41.70;36.03;;;9.30;90.50;;;;;;5018437;28;20045;-57
2021/04/10 10:39:42;;;;;;;41.85;34.60;;;9.30;90.10;;;;;;5015273;28;20095;-57
2021/04/10 10:42:08;;;;;;;41.97;35.42;;;9.20;90.40;;;;;;5009539;28;20128;-56
2021/04/10 10:44:36;;;;;;;42.10;34.72;;;9.10;90.60;;;;;;5003217;28;20057;-59
2021/04/10 10:47:04;;;;;;;42.38;36.30;;;9.20;90.20;;;;;;5012870;28;20563;-59
2021/04/10 10:49:30;;;;;;;40.50;33.63;;;9.30;90.10;;;;;;5013381;28;20477;-58
2021/04/10 10:51:56;;;;;;;37.78;32.75;;;9.40;89.70;;;;;;5015053;28;20041;-59
2021/04/10 10:54:38;;;;;;;35.40;31.63;;;9.50;88.50;;;;;;5014093;28;20037;-59
2021/04/10 10:57:13;;;;;;;40.95;34.10;;;9.50;89.00;;;;;;5031437;28;20039;-57
2021/04/10 10:59:39;;;;;;;;;;;9.30;90.20;;;;;;5033773;28;20071;-60
2021/04/10 11:02:05;;;;;;;38.53;32.20;;;9.40;89.20;;;;;;5032304;28;20008;-56
2021/04/10 11:04:34;;;;;;;34.63;30.70;;;9.50;88.90;;;;;;5029936;28;20097;-59
2021/04/10 11:07:02;;;;;;;36.95;32.20;;;9.80;87.20;;;;;;5028738;28;20046;-65
2021/04/10 11:09:33;;;;;;;41.83;33.75;;;9.80;86.50;;;;;;5019433;28;20124;-62
2021/04/10 11:12:05;;;;;;;39.83;34.80;;;9.80;86.90;;;;;;5015879;28;20030;-61
2021/04/10 11:14:34;;;;;;;39.58;34.20;;;10.00;87.00;;;;;;5013865;28;20026;-61
2021/04/10 11:17:01;;;;;;;37.08;33.03;;;10.00;86.90;;;;;;5027234;28;20042;-59
2021/04/10 11:19:26;;;;;;;32.67;29.15;;;10.10;86.50;;;;;;5033396;28;20043;-61
2021/04/10 11:21:53;;;;;;;32.47;29.05;;;10.20;85.90;;;;;;5020150;28;20091;-61
2021/04/10 11:24:18;;;;;;;38.88;33.25;;;10.30;84.80;;;;;;5013455;28;20041;-61
2021/04/10 11:26:51;;;;;;;39.22;33.85;;;10.20;86.10;;;;;;5022331;28;20095;-58
2021/04/10 11:29:17;;;;;;;37.53;31.77;;;10.40;87.40;;;;;;5032453;28;20029;-53
2021/04/10 11:32:11;;;;;;;34.40;29.58;;;10.60;85.30;;;;;;5023178;28;20418;-58
2021/04/10 11:34:58;;;;;;;33.40;29.80;;;10.60;84.90;;;;;;5013706;28;20113;-56
2021/04/10 11:37:30;;;;;;;34.00;30.40;;;10.70;83.60;;;;;;5027908;28;20076;-58
2021/04/10 11:39:56;;;;;;;38.15;31.65;;;10.90;83.10;;;;;;5017933;28;20042;-61
2021/04/10 11:42:23;;;;;;;36.78;31.17;;;10.50;82.90;;;;;;5013151;28;20054;-61
2021/04/10 11:44:48;;;;;;;37.53;31.33;;;10.40;84.10;;;;;;5025390;28;20033;-61
2021/04/10 11:47:26;;;;;;;34.60;30.75;;;10.50;83.80;;;;;;5033144;28;20026;-59
2021/04/10 11:49:52;;;;;;;35.80;30.27;;;10.50;82.80;;;;;;5020258;28;20560;-59
2021/04/10 11:52:23;;;;;;;35.30;30.35;;;10.50;83.40;;;;;;5006347;28;20134;-60
2021/04/10 11:55:03;;;;;;;30.45;27.25;;;10.50;83.30;;;;;;5024001;28;20095;-58
2021/04/10 11:57:35;;;;;;;31.40;28.00;;;10.60;82.60;;;;;;5032949;28;20034;-59
2021/04/10 12:00:04;;;;;;;32.63;28.88;;;10.50;82.90;;;;;;5018858;28;20050;-61
2021/04/10 12:02:34;;;;;;;35.65;29.25;;;10.40;84.50;;;;;;5012759;28;20030;-58
2021/04/10 12:05:27;;;;;;;30.83;25.77;;;10.50;83.70;;;;;;5016690;28;20038;-59
2021/04/10 12:08:21;;;;;;;29.88;26.33;;;10.60;81.40;;;;;;5012280;28;20494;-60
2021/04/10 12:10:52;;;;;;;30.60;27.33;;;10.60;82.90;;;;;;5030808;28;20409;-61
2021/04/10 12:13:19;;;;;;;32.10;28.77;;;10.50;83.70;;;;;;5033145;28;20049;-60
2021/04/10 12:15:53;;;;;;;30.63;27.38;;;10.50;83.90;;;;;;5013519;28;20568;-60
2021/04/10 12:18:20;;;;;;;30.40;27.25;;;10.60;83.60;;;;;;5012558;28;20038;-60
2021/04/10 12:20:47;;;;;;;32.53;28.35;;;10.50;84.20;;;;;;5029620;28;20040;-61
2021/04/10 12:23:13;;;;;;;31.70;27.38;;;10.40;84.40;;;;;;5013414;28;20041;-60
2021/04/10 12:25:39;;;;;;;29.83;25.15;;;10.40;84.60;;;;;;5013586;28;20045;-60
2021/04/10 12:28:05;;;;;;;29.33;24.63;;;10.30;83.90;;;;;;5012345;28;20029;-59
2021/04/10 12:30:31;;;;;;;28.38;25.02;;;10.10;83.40;;;;;;5031577;28;20034;-60
2021/04/10 12:32:57;;;;;;;27.92;24.90;;;9.90;84.70;;;;;;5032391;28;20065;-60
2021/04/10 12:35:23;;;;;;;28.92;25.77;;;9.90;84.40;;;;;;5014885;28;20057;-59
2021/04/10 12:37:48;;;;;;;26.25;23.45;;;9.80;85.40;;;;;;5012193;28;20026;-59
2021/04/10 12:40:14;;;;;;;26.95;23.75;;;9.70;85.20;;;;;;5028314;28;20120;-60
2021/04/10 12:42:40;;;;;;;27.65;23.75;;;9.70;85.40;;;;;;5015418;28;20072;-61
2021/04/10 12:45:08;;;;;;;27.40;23.92;;;9.80;85.50;;;;;;5026580;28;20042;-58
2021/04/10 12:47:33;;;;;;;24.40;21.83;;;9.90;85.60;;;;;;5032735;28;20043;-59
2021/04/10 12:49:59;;;;;;;26.75;23.05;;;9.80;84.50;;;;;;5020558;28;20449;-61